Time;durP1;ratioP1;P1;durP2;ratioP2;P2;SDS_P1;SDS_P2;PMS_P1;PMS_P2;Temp;Humidity;BMP_temperature;BMP_pressure;BME280_temperature;BME280_humidity;BME280_pressure;Samples;Min_cycle;Max_cycle;Signal;HPM_P1;HPM_P2
2022/09/30 00:01:00;;;;;;;6.97;3.55;;;;;;;7.92;100.00;94921.19;4989237;28;24436;-72
2022/09/30 00:03:27;;;;;;;4.95;3.47;;;;;;;8.03;100.00;94922.25;4984750;28;25007;-72
2022/09/30 00:05:57;;;;;;;4.05;2.63;;;;;;;8.00;100.00;94918.91;4989408;28;24551;-71
2022/09/30 00:08:24;;;;;;;4.05;2.63;;;;;;;7.84;100.00;94915.72;4980270;28;24440;-71
2022/09/30 00:10:59;;;;;;;3.45;2.72;;;;;;;7.91;100.00;94911.81;4971390;28;24484;-72
2022/09/30 00:13:26;;;;;;;5.20;3.28;;;;;;;7.92;100.00;94910.06;4984714;28;20809;-72
2022/09/30 00:15:54;;;;;;;4.93;2.80;;;;;;;7.70;100.00;94918.38;4989301;28;24417;-72
2022/09/30 00:18:21;;;;;;;5.15;2.80;;;;;;;7.51;100.00;94918.72;4984879;28;24440;-72
2022/09/30 00:20:47;;;;;;;4.63;2.50;;;;;;;7.51;100.00;94926.47;4989399;28;24519;-72
2022/09/30 00:23:14;;;;;;;3.93;2.33;;;;;;;7.51;100.00;94931.59;4984769;28;24487;-72
2022/09/30 00:25:40;;;;;;;4.00;2.80;;;;;;;7.56;100.00;94924.41;4989225;28;24456;-72
2022/09/30 00:28:07;;;;;;;4.10;2.27;;;;;;;7.57;100.00;94922.69;4985657;28;24546;-72
2022/09/30 00:30:34;;;;;;;3.63;2.85;;;;;;;7.56;100.00;94926.16;4989588;28;20776;-72
2022/09/30 00:33:02;;;;;;;5.40;3.28;;;;;;;7.76;100.00;94929.09;4985795;28;24441;-72
2022/09/30 00:35:29;;;;;;;6.75;3.35;;;;;;;8.07;100.00;94923.69;4981923;28;24799;-71
2022/09/30 00:37:55;;;;;;;4.43;2.97;;;;;;;7.80;100.00;94929.72;4986361;28;24433;-72
2022/09/30 00:40:22;;;;;;;6.05;3.03;;;;;;;7.72;100.00;94926.84;4988803;28;24452;-72
2022/09/30 00:42:49;;;;;;;5.15;3.10;;;;;;;7.59;100.00;94931.13;4985737;28;25024;-72
2022/09/30 00:45:16;;;;;;;4.82;3.00;;;;;;;7.49;100.00;94933.44;4988361;28;24507;-71
2022/09/30 00:47:50;;;;;;;5.43;3.28;;;;;;;7.36;100.00;94943.72;4986509;28;24440;-71
2022/09/30 00:50:31;;;;;;;20.73;10.48;;;;;;;7.23;100.00;94942.81;4992681;28;24511;-72
2022/09/30 00:53:05;;;;;;;19.58;10.25;;;;;;;7.28;100.00;94943.38;4990100;28;20780;-72
2022/09/30 00:55:38;;;;;;;19.17;9.70;;;;;;;7.39;100.00;94946.09;4979021;28;20685;-71
2022/09/30 00:58:08;;;;;;;17.58;9.25;;;;;;;7.44;100.00;94928.59;4990184;28;20785;-72
2022/09/30 01:00:35;;;;;;;13.02;6.35;;;;;;;7.46;100.00;94931.91;4992901;28;24479;-71
2022/09/30 01:03:02;;;;;;;11.98;5.47;;;;;;;7.47;100.00;94936.13;4989145;28;24751;-72
2022/09/30 01:05:33;;;;;;;9.38;4.50;;;;;;;7.57;100.00;94936.38;4992879;28;24457;-72
2022/09/30 01:08:03;;;;;;;8.35;5.35;;;;;;;7.65;100.00;94934.13;4989826;28;24440;-71
2022/09/30 01:10:30;;;;;;;12.50;5.90;;;;;;;7.65;100.00;94941.88;4978380;28;24429;-72
2022/09/30 01:12:57;;;;;;;8.02;4.30;;;;;;;7.67;100.00;94941.75;4989537;28;24438;-72
2022/09/30 01:15:34;;;;;;;6.40;4.10;;;;;;;7.72;100.00;94939.72;4992019;28;24640;-72
2022/09/30 01:18:08;;;;;;;4.57;2.67;;;;;;;7.74;100.00;94940.44;4990018;28;20793;-72
2022/09/30 01:21:03;;;;;;;4.45;2.92;;;;;;;7.78;100.00;94941.88;4992681;28;24451;-72
2022/09/30 01:24:07;;;;;;;6.25;2.63;;;;;;;7.75;100.00;94937.78;4973729;28;20813;-72
2022/09/30 01:26:57;;;;;;;3.45;2.78;;;;;;;7.80;100.00;94942.63;4981415;28;21122;-71
2022/09/30 01:29:59;;;;;;;5.13;2.80;;;;;;;7.67;100.00;94941.75;4991842;28;24986;-72
2022/09/30 01:32:49;;;;;;;5.68;2.78;;;;;;;7.47;100.00;94946.44;4974201;28;20888;-72
2022/09/30 01:35:24;;;;;;;12.10;2.72;;;;;;;7.36;100.00;94946.28;4986821;28;24436;-72
2022/09/30 01:38:03;;;;;;;5.30;3.15;;;;;;;7.28;100.00;94951.94;4990140;28;24437;-71
2022/09/30 01:40:42;;;;;;;5.55;3.00;;;;;;;7.19;100.00;94949.09;4985072;28;20693;-72
2022/09/30 01:43:14;;;;;;;6.90;3.03;;;;;;;7.16;100.00;94947.56;4990058;28;20734;-72
2022/09/30 01:45:44;;;;;;;5.88;2.97;;;;;;;7.17;100.00;94951.78;4987202;28;20813;-72
2022/09/30 01:48:21;;;;;;;3.88;3.00;;;;;;;7.21;100.00;94955.00;4990400;28;20764;-72
2022/09/30 01:50:54;;;;;;;5.45;2.80;;;;;;;7.34;100.00;94953.31;4987128;28;24799;-72
2022/09/30 01:53:29;;;;;;;3.53;2.78;;;;;;;7.45;100.00;94965.47;4989463;28;24970;-72
2022/09/30 01:56:00;;;;;;;7.20;2.63;;;;;;;7.52;100.00;94972.72;4987025;28;24437;-72
2022/09/30 01:58:35;;;;;;;3.70;2.80;;;;;;;7.57;100.00;94977.59;4990795;28;20814;-72
2022/09/30 02:01:08;;;;;;;4.10;2.40;;;;;;;7.55;100.00;94979.44;4985522;28;24970;-72
2022/09/30 02:03:39;;;;;;;4.55;2.45;;;;;;;7.51;100.00;94976.22;4991063;28;24437;-72
2022/09/30 02:06:10;;;;;;;3.53;2.40;;;;;;;7.50;100.00;94972.00;4986596;28;20743;-72
2022/09/30 02:08:43;;;;;;;4.72;2.90;;;;;;;7.34;100.00;94970.47;4978998;28;20780;-72
2022/09/30 02:11:16;;;;;;;5.35;3.05;;;;;;;7.28;100.00;94963.97;4986059;28;20694;-72
2022/09/30 02:13:49;;;;;;;3.50;2.50;;;;;;;7.41;100.00;94971.75;4991376;28;21218;-71
2022/09/30 02:16:20;;;;;;;3.28;2.50;;;;;;;7.53;100.00;94973.56;4986216;28;20684;-72
2022/09/30 02:18:52;;;;;;;6.47;2.78;;;;;;;7.48;100.00;94984.16;4992231;28;20758;-72
2022/09/30 02:21:23;;;;;;;5.28;2.22;;;;;;;7.44;100.00;94985.28;4986592;28;20835;-72
2022/09/30 02:23:54;;;;;;;4.90;2.97;;;;;;;7.37;100.00;94984.00;4991222;28;24448;-72
2022/09/30 02:26:25;;;;;;;11.43;2.53;;;;;;;7.42;100.00;94987.13;4986421;28;24544;-72
2022/09/30 02:28:56;;;;;;;3.72;2.65;;;;;;;7.41;100.00;94982.06;4991665;28;20693;-71
2022/09/30 02:31:25;;;;;;;3.53;2.25;;;;;;;7.57;100.00;94977.59;4986771;28;20732;-72
2022/09/30 02:33:58;;;;;;;7.70;2.70;;;;;;;8.06;100.00;94973.63;4982178;28;20842;-72
2022/09/30 02:36:30;;;;;;;7.67;2.80;;;;;;;8.20;100.00;94981.28;4986988;28;21512;-71
2022/09/30 02:39:02;;;;;;;3.70;2.63;;;;;;;8.03;100.00;94978.97;4991214;28;24435;-71
2022/09/30 02:41:34;;;;;;;4.63;2.50;;;;;;;7.85;100.00;94974.06;4984261;28;24433;-72
2022/09/30 02:44:02;;;;;;;2.55;2.13;;;;;;;7.69;100.00;94988.88;4990291;28;24436;-72
2022/09/30 02:46:41;;;;;;;5.82;2.47;;;;;;;7.60;100.00;94992.03;4987124;28;25002;-71
2022/09/30 02:49:21;;;;;;;5.22;2.38;;;;;;;7.55;100.00;94994.09;4989813;28;24425;-72
2022/09/30 02:52:05;;;;;;;3.75;2.53;;;;;;;7.52;100.00;94997.66;4989378;28;24432;-72
2022/09/30 02:54:37;;;;;;;3.22;2.35;;;;;;;7.54;100.00;94998.41;4976581;28;20754;-72
2022/09/30 02:57:18;;;;;;;2.55;2.30;;;;;;;7.52;100.00;94998.50;4990597;28;24432;-72
2022/09/30 02:59:46;;;;;;;4.22;2.58;;;;;;;7.55;100.00;94996.66;4987292;28;21191;-72
2022/09/30 03:02:13;;;;;;;5.65;2.50;;;;;;;7.38;100.00;95001.13;4990573;28;21261;-72
2022/09/30 03:04:43;;;;;;;3.42;2.75;;;;;;;7.46;100.00;94998.06;4986747;28;20877;-71
2022/09/30 03:07:10;;;;;;;3.90;2.80;;;;;;;7.52;100.00;95013.94;4982840;28;20745;-72
2022/09/30 03:09:36;;;;;;;5.28;2.80;;;;;;;7.57;100.00;95010.28;4987149;28;25025;-72
2022/09/30 03:12:12;;;;;;;9.18;2.42;;;;;;;7.67;100.00;95012.16;4989658;28;24444;-72
2022/09/30 03:14:52;;;;;;;6.72;2.63;;;;;;;7.92;100.00;95014.00;4986701;28;20703;-72
2022/09/30 03:17:48;;;;;;;2.75;2.30;;;;;;;7.74;100.00;95012.59;4989769;28;25016;-72
2022/09/30 03:20:39;;;;;;;5.82;3.08;;;;;;;7.61;100.00;95006.59;4983114;28;20697;-72
2022/09/30 03:23:35;;;;;;;4.13;2.88;;;;;;;7.83;100.00;95021.53;4989603;28;20774;-72
2022/09/30 03:26:14;;;;;;;10.48;3.00;;;;;;;7.84;100.00;95023.97;4986411;28;21304;-72
2022/09/30 03:28:50;;;;;;;4.75;2.70;;;;;;;7.70;100.00;95024.03;4979052;28;21283;-72
2022/09/30 03:31:25;;;;;;;4.47;2.90;;;;;;;7.62;100.00;95021.94;4986105;28;21085;-72
2022/09/30 03:33:55;;;;;;;4.85;3.13;;;;;;;7.62;100.00;95023.69;4987979;28;20755;-72
2022/09/30 03:36:31;;;;;;;4.00;2.93;;;;;;;7.55;100.00;95018.09;4983921;28;20759;-72
2022/09/30 03:39:04;;;;;;;5.03;2.97;;;;;;;7.50;100.00;95020.97;4986658;28;20706;-72
2022/09/30 03:41:38;;;;;;;5.20;2.80;;;;;;;7.51;100.00;95017.47;4971756;28;21268;-71
2022/09/30 03:44:10;;;;;;;4.47;2.75;;;;;;;7.56;100.00;95013.75;4980390;28;21269;-71
2022/09/30 03:46:41;;;;;;;3.85;2.50;;;;;;;7.60;100.00;95020.38;4982206;28;21326;-72
2022/09/30 03:49:12;;;;;;;10.80;2.30;;;;;;;7.62;100.00;95018.53;4988714;28;21249;-72
2022/09/30 03:51:41;;;;;;;4.97;2.60;;;;;;;7.59;100.00;95023.88;4986866;28;20822;-71
2022/09/30 03:54:09;;;;;;;3.83;2.33;;;;;;;7.56;100.00;95035.19;4988274;28;20765;-72
2022/09/30 03:56:42;;;;;;;3.15;2.20;;;;;;;7.58;100.00;95030.78;4986982;28;20815;-72
2022/09/30 03:59:11;;;;;;;16.08;2.80;;;;;;;7.59;100.00;95032.44;4988685;28;20693;-72
2022/09/30 04:01:39;;;;;;;3.67;2.30;;;;;;;7.52;100.00;95038.91;4987878;28;21174;-71
2022/09/30 04:04:05;;;;;;;3.30;2.43;;;;;;;7.49;100.00;95034.78;4984417;28;20827;-71
2022/09/30 04:06:32;;;;;;;3.27;2.20;;;;;;;7.56;100.00;95042.09;4988435;28;20857;-72
2022/09/30 04:09:00;;;;;;;2.33;1.83;;;;;;;7.67;100.00;95039.69;4985452;28;20768;-71
2022/09/30 04:11:26;;;;;;;3.15;1.88;;;;;;;7.71;100.00;95046.28;4990040;28;20861;-72
2022/09/30 04:13:53;;;;;;;4.18;2.25;;;;;;;7.73;100.00;95053.03;4980329;28;24464;-71
2022/09/30 04:16:19;;;;;;;3.13;1.85;;;;;;;7.68;100.00;95051.66;4987778;28;25044;-70
2022/09/30 04:18:46;;;;;;;3.80;1.90;;;;;;;7.59;100.00;95057.38;4985341;28;24445;-70
2022/09/30 04:21:14;;;;;;;2.65;2.00;;;;;;;7.52;100.00;95054.34;4988083;28;24433;-70
2022/09/30 04:23:42;;;;;;;3.28;1.95;;;;;;;7.49;100.00;95057.97;4986576;28;20823;-71
2022/09/30 04:26:13;;;;;;;5.60;2.38;;;;;;;7.73;100.00;95058.19;4992498;28;21314;-72
2022/09/30 04:28:40;;;;;;;3.63;2.33;;;;;;;7.68;100.00;95057.66;4990072;28;20784;-72
2022/09/30 04:31:07;;;;;;;7.65;2.45;;;;;;;7.57;100.00;95051.50;4992264;28;25087;-71
2022/09/30 04:33:34;;;;;;;4.07;2.17;;;;;;;7.56;100.00;95045.50;4987818;28;24447;-71
2022/09/30 04:36:01;;;;;;;4.25;2.50;;;;;;;7.61;100.00;95042.66;4992398;28;24429;-72
2022/09/30 04:38:28;;;;;;;4.40;2.70;;;;;;;7.55;100.00;95048.19;4990199;28;21345;-71
2022/09/30 04:40:55;;;;;;;4.47;2.78;;;;;;;7.49;100.00;95060.53;4992525;28;24859;-72
2022/09/30 04:43:24;;;;;;;4.77;2.90;;;;;;;7.49;100.00;95060.53;4989672;28;25041;-72
2022/09/30 04:45:52;;;;;;;5.88;3.00;;;;;;;7.51;100.00;95068.16;4983417;28;20788;-71
2022/09/30 04:48:21;;;;;;;13.15;8.52;;;;;;;7.47;100.00;95074.44;4990658;28;20835;-72
2022/09/30 04:50:47;;;;;;;7.68;4.50;;;;;;;7.50;100.00;95075.06;4992276;28;21170;-71
2022/09/30 04:53:14;;;;;;;16.88;9.48;;;;;;;7.39;100.00;95077.47;5013461;23;24464;-75
2022/09/30 04:55:41;;;;;;;7.37;4.63;;;;;;;7.33;100.00;95075.28;5001210;28;20770;-76
2022/09/30 04:58:07;;;;;;;4.47;3.78;;;;;;;7.43;100.00;95063.50;4997798;28;20767;-76
2022/09/30 05:00:35;;;;;;;8.75;5.70;;;;;;;7.54;100.00;95078.28;5002122;28;24993;-75
2022/09/30 05:03:02;;;;;;;11.88;6.97;;;;;;;7.57;100.00;95072.13;4987290;28;21387;-75
2022/09/30 05:05:29;;;;;;;25.53;14.67;;;;;;;7.61;100.00;95079.56;4979832;28;20915;-74
2022/09/30 05:08:00;;;;;;;29.10;15.23;;;;;;;7.64;100.00;95083.69;4980346;28;20794;-75
2022/09/30 05:10:26;;;;;;;22.05;12.20;;;;;;;7.65;100.00;95083.59;4976425;28;21053;-75
2022/09/30 05:12:53;;;;;;;17.92;9.63;;;;;;;7.66;100.00;95087.00;4970547;28;24434;-75
2022/09/30 05:15:19;;;;;;;10.25;6.68;;;;;;;7.69;100.00;95087.66;4976399;28;24438;-75
2022/09/30 05:17:50;;;;;;;9.65;4.65;;;;;;;7.73;100.00;95089.09;4971631;28;24433;-75
2022/09/30 05:20:16;;;;;;;9.55;5.28;;;;;;;7.80;100.00;95089.56;4976732;28;21919;-75
2022/09/30 05:22:43;;;;;;;6.32;4.28;;;;;;;7.81;100.00;95095.53;4971133;28;24434;-75
2022/09/30 05:25:10;;;;;;;6.53;3.90;;;;;;;7.80;100.00;95096.47;4975973;28;24437;-76
2022/09/30 05:27:37;;;;;;;5.37;3.60;;;;;;;7.79;100.00;95105.09;4971291;28;24453;-76
2022/09/30 05:30:05;;;;;;;4.40;3.47;;;;;;;7.76;100.00;95099.22;4973322;28;20781;-77
2022/09/30 05:32:32;;;;;;;19.77;4.70;;;;;;;7.70;100.00;95099.59;4973031;28;20884;-76
2022/09/30 05:35:02;;;;;;;5.88;4.82;;;;;;;7.65;100.00;95105.97;4977521;28;24794;-76
2022/09/30 05:37:28;;;;;;;7.32;4.43;;;;;;;7.70;100.00;95102.19;4966670;28;20781;-72
2022/09/30 05:39:56;;;;;;;4.97;3.47;;;;;;;7.75;100.00;95110.47;4975609;28;24432;-72
2022/09/30 05:42:22;;;;;;;4.82;3.05;;;;;;;7.79;100.00;95112.84;4978672;28;24449;-72
2022/09/30 05:44:49;;;;;;;3.88;2.70;;;;;;;7.80;100.00;95110.19;4973134;28;25007;-72
2022/09/30 05:47:16;;;;;;;4.78;2.53;;;;;;;7.85;100.00;95117.63;4977575;28;20795;-73
2022/09/30 05:49:42;;;;;;;4.07;2.33;;;;;;;7.78;100.00;95121.50;4969296;28;20882;-73
2022/09/30 05:52:10;;;;;;;11.05;3.03;;;;;;;7.65;100.00;95121.44;4967023;28;20780;-73
2022/09/30 05:54:37;;;;;;;5.43;3.10;;;;;;;7.65;100.00;95127.41;4967793;28;20876;-73
2022/09/30 05:57:03;;;;;;;4.38;3.00;;;;;;;7.69;100.00;95125.47;4968458;28;24780;-73
2022/09/30 05:59:30;;;;;;;7.18;3.38;;;;;;;7.76;100.00;95119.84;4957178;28;24975;-73
2022/09/30 06:01:58;;;;;;;4.68;3.45;;;;;;;7.83;100.00;95124.63;4971948;28;24484;-75
2022/09/30 06:04:24;;;;;;;5.93;3.35;;;;;;;7.90;100.00;95126.72;4982889;28;20789;-74
2022/09/30 06:06:51;;;;;;;3.20;1.90;;;;;;;8.01;100.00;95128.66;4969027;28;20792;-74
2022/09/30 06:09:18;;;;;;;3.00;2.15;;;;;;;7.97;100.00;95132.31;4972950;28;24444;-78
2022/09/30 06:11:45;;;;;;;3.08;2.03;;;;;;;7.95;100.00;95135.00;4964512;28;24442;-77
2022/09/30 06:14:12;;;;;;;4.50;2.33;;;;;;;7.97;100.00;95140.03;4973089;28;24444;-77
2022/09/30 06:16:38;;;;;;;5.60;2.97;;;;;;;7.95;100.00;95147.06;4978444;28;24532;-77
2022/09/30 06:19:05;;;;;;;8.90;3.40;;;;;;;7.85;100.00;95144.22;4977124;28;20786;-77
2022/09/30 06:21:32;;;;;;;5.70;3.15;;;;;;;7.95;100.00;95145.31;4979417;28;20884;-79
2022/09/30 06:23:58;;;;;;;5.40;3.00;;;;;;;8.01;100.00;95141.53;4976366;28;24448;-80
2022/09/30 06:26:26;;;;;;;5.00;2.63;;;;;;;8.01;100.00;95149.28;4984074;28;24433;-78
2022/09/30 06:28:53;;;;;;;5.18;3.00;;;;;;;7.94;100.00;95153.16;4977582;28;20834;-77
2022/09/30 06:31:20;;;;;;;4.72;2.75;;;;;;;7.97;100.00;95160.69;4977609;28;24488;-78
2022/09/30 06:33:46;;;;;;;3.20;2.55;;;;;;;8.01;100.00;95159.59;4976131;28;24515;-80
2022/09/30 06:36:13;;;;;;;4.40;2.58;;;;;;;8.05;100.00;95158.47;4980904;28;24998;-78
2022/09/30 06:38:39;;;;;;;4.57;2.58;;;;;;;7.94;100.00;95164.28;4975344;28;24432;-78
2022/09/30 06:41:07;;;;;;;3.33;2.33;;;;;;;7.89;100.00;95168.88;4982683;28;24428;-77
2022/09/30 06:43:35;;;;;;;3.22;2.33;;;;;;;7.87;100.00;95173.31;4973189;28;20788;-77
2022/09/30 06:46:02;;;;;;;4.63;2.33;;;;;;;7.76;100.00;95175.75;4982493;28;20820;-76
2022/09/30 06:48:29;;;;;;;5.65;3.47;;;;;;;7.71;100.00;95177.75;4972300;28;24526;-76
2022/09/30 06:50:57;;;;;;;64.60;52.93;;;;;;;7.84;100.00;95183.81;4983120;28;20918;-77
2022/09/30 06:53:24;;;;;;;27.75;21.90;;;;;;;7.97;100.00;95189.91;4967541;28;20803;-75
2022/09/30 06:55:55;;;;;;;6.63;5.73;;;;;;;8.06;100.00;95187.66;4984552;28;20846;-76
2022/09/30 06:58:23;;;;;;;6.03;4.50;;;;;;;8.09;100.00;95190.06;4973481;28;20673;-76
2022/09/30 07:00:59;;;;;;;5.97;3.70;;;;;;;8.16;100.00;95188.75;4977294;28;21226;-78
2022/09/30 07:03:28;;;;;;;6.80;3.78;;;;;;;8.22;100.00;95196.91;4968425;28;21089;-78
2022/09/30 07:05:59;;;;;;;7.85;4.28;;;;;;;8.30;100.00;95200.75;4978668;28;21340;-79
2022/09/30 07:08:28;;;;;;;6.00;3.67;;;;;;;8.36;100.00;95201.22;4975544;28;20784;-78
2022/09/30 07:10:55;;;;;;;4.05;3.33;;;;;;;8.38;100.00;95207.16;4976209;28;24453;-77
2022/09/30 07:13:22;;;;;;;5.63;3.80;;;;;;;8.43;100.00;95212.84;4968195;28;20869;-78
2022/09/30 07:15:49;;;;;;;3.50;2.95;;;;;;;8.44;100.00;95213.66;4978459;28;24437;-77
2022/09/30 07:18:19;;;;;;;4.60;3.10;;;;;;;8.48;100.00;95220.28;4962320;28;24441;-77
2022/09/30 07:20:48;;;;;;;4.88;3.60;;;;;;;8.44;100.00;95208.50;4957764;28;20822;-77
2022/09/30 07:23:15;;;;;;;5.75;3.30;;;;;;;8.34;100.00;95213.38;4971368;28;20774;-75
2022/09/30 07:25:49;;;;;;;10.38;3.30;;;;;;;8.39;100.00;95211.38;4972355;28;24445;-81
2022/09/30 07:28:16;;;;;;;5.88;3.28;;;;;;;8.44;100.00;95213.66;4970656;28;21286;-76
2022/09/30 07:30:43;;;;;;;8.23;5.00;;;;;;;8.53;100.00;95212.25;4973236;28;20818;-80
2022/09/30 07:33:09;;;;;;;5.90;4.03;;;;;;;8.60;100.00;95213.50;4963274;28;25029;-79
2022/09/30 07:35:37;;;;;;;5.20;3.58;;;;;;;8.66;100.00;95219.13;4967344;28;21707;-79
2022/09/30 07:38:04;;;;;;;12.43;4.33;;;;;;;8.71;100.00;95221.41;4974302;28;20857;-80
2022/09/30 07:40:31;;;;;;;7.88;3.80;;;;;;;8.65;100.00;95226.97;4980019;28;20789;-78
2022/09/30 07:42:57;;;;;;;6.53;3.77;;;;;;;8.61;100.00;95230.69;4974613;28;24452;-78
2022/09/30 07:45:24;;;;;;;6.50;3.60;;;;;;;8.71;100.00;95231.72;4973356;28;24438;-78
2022/09/30 07:47:51;;;;;;;5.50;3.60;;;;;;;8.81;100.00;95237.97;4975357;28;21284;-79
2022/09/30 07:50:18;;;;;;;7.72;3.90;;;;;;;8.81;100.00;95242.28;4975551;28;20768;-80
2022/09/30 07:52:46;;;;;;;7.55;3.65;;;;;;;8.78;100.00;95247.66;4973743;28;24791;-80
2022/09/30 07:55:12;;;;;;;7.55;3.70;;;;;;;8.82;100.00;95249.09;4984782;28;20819;-80
2022/09/30 07:57:39;;;;;;;7.53;3.75;;;;;;;8.60;100.00;95252.22;4971589;28;24434;-79
2022/09/30 08:00:07;;;;;;;6.78;3.55;;;;;;;8.54;100.00;95257.78;4980038;28;24433;-77
2022/09/30 08:02:33;;;;;;;7.82;4.00;;;;;;;8.47;100.00;95260.75;4972748;28;24453;-79
2022/09/30 08:05:00;;;;;;;11.63;4.13;;;;;;;8.50;100.00;95258.91;4975635;28;24459;-77
2022/09/30 08:07:26;;;;;;;10.23;4.50;;;;;;;8.62;100.00;95271.03;4977364;28;24460;-79
2022/09/30 08:09:54;;;;;;;9.60;5.30;;;;;;;8.68;100.00;95266.31;4981771;28;24965;-76
2022/09/30 08:12:21;;;;;;;12.13;5.83;;;;;;;8.78;100.00;95271.72;4964584;28;24523;-76
2022/09/30 08:14:47;;;;;;;18.77;8.83;;;;;;;8.91;100.00;95275.19;4976119;28;24441;-76
2022/09/30 08:17:14;;;;;;;53.17;16.48;;;;;;;8.95;100.00;95274.06;4965365;28;20781;-76
2022/09/30 08:19:43;;;;;;;26.30;12.88;;;;;;;8.93;100.00;95277.66;4978841;28;21251;-76
2022/09/30 08:22:12;;;;;;;18.55;8.35;;;;;;;8.95;100.00;95283.56;4973507;28;20827;-76
2022/09/30 08:24:38;;;;;;;24.25;9.48;;;;;;;9.02;100.00;95286.59;4990309;28;20776;-79
2022/09/30 08:27:06;;;;;;;15.77;8.55;;;;;;;9.09;100.00;95290.44;4975973;28;24799;-76
2022/09/30 08:29:33;;;;;;;6.82;4.95;;;;;;;9.07;100.00;95292.28;4963495;28;20837;-76
2022/09/30 08:31:59;;;;;;;10.45;5.30;;;;;;;9.10;100.00;95292.09;4976084;28;20783;-75
2022/09/30 08:34:26;;;;;;;7.13;4.53;;;;;;;9.16;100.00;95302.03;4976687;28;24468;-76
2022/09/30 08:36:52;;;;;;;8.88;4.18;;;;;;;9.27;100.00;95299.59;4972786;28;24449;-79
2022/09/30 08:39:19;;;;;;;9.20;5.47;;;;;;;9.20;100.00;95306.06;4970923;28;24436;-77
2022/09/30 08:42:11;;;;;;;9.20;5.30;;;;;;;9.29;100.00;95308.03;4975343;28;24511;-77
2022/09/30 08:44:45;;;;;;;10.47;5.37;;;;;;;9.48;100.00;95309.44;4966445;28;24520;-76
2022/09/30 08:47:40;;;;;;;7.57;4.88;;;;;;;9.55;100.00;95313.28;4961771;28;20720;-77
2022/09/30 08:50:16;;;;;;;16.63;8.23;;;;;;;9.57;100.00;95307.06;4978894;28;20743;-77
2022/09/30 08:52:47;;;;;;;10.53;6.23;;;;;;;9.77;100.00;95302.31;4970557;28;24500;-77
2022/09/30 08:55:20;;;;;;;17.58;7.22;;;;;;;9.83;100.00;95300.16;4966310;28;20665;-77
2022/09/30 08:57:47;;;;;;;10.02;6.70;;;;;;;9.97;100.00;95300.97;4971142;28;24440;-76
2022/09/30 09:00:16;;;;;;;11.88;7.70;;;;;;;10.20;100.00;95305.44;4967032;28;24428;-77
2022/09/30 09:02:50;;;;;;;11.02;7.15;;;;;;;10.33;100.00;95301.06;4974140;28;24437;-77
2022/09/30 09:05:24;;;;;;;7.87;6.43;;;;;;;10.63;100.00;95303.28;4967421;28;24509;-77
2022/09/30 09:07:59;;;;;;;11.43;6.47;;;;;;;10.64;100.00;95306.69;4966571;28;21191;-76
2022/09/30 09:10:36;;;;;;;7.50;5.97;;;;;;;10.60;100.00;95300.91;4964957;28;24990;-76
2022/09/30 09:13:11;;;;;;;6.28;5.43;;;;;;;10.99;100.00;95303.38;4980872;28;24448;-77
2022/09/30 09:15:53;;;;;;;7.40;6.30;;;;;;;11.01;100.00;95304.94;4976993;28;24985;-75
2022/09/30 09:18:36;;;;;;;9.23;6.85;;;;;;;11.23;100.00;95305.94;4974960;28;24436;-76
2022/09/30 09:21:13;;;;;;;11.70;5.90;;;;;;;11.58;100.00;95308.56;4974916;28;24993;-76
2022/09/30 09:23:39;;;;;;;14.82;7.18;;;;;;;11.61;100.00;95311.75;4979515;28;24444;-76
2022/09/30 09:26:06;;;;;;;12.67;6.83;;;;;;;11.33;100.00;95305.16;4976284;28;24444;-76
2022/09/30 09:28:38;;;;;;;8.93;6.20;;;;;;;11.51;100.00;95309.97;4980007;28;24461;-76
2022/09/30 09:31:12;;;;;;;9.20;6.32;;;;;;;11.81;100.00;95312.03;4982521;28;24429;-76
2022/09/30 09:33:39;;;;;;;9.43;6.05;;;;;;;12.37;100.00;95299.13;4979762;28;24472;-76
2022/09/30 09:36:19;;;;;;;11.35;6.20;;;;;;;12.84;100.00;95310.19;4970123;28;24444;-76
2022/09/30 09:39:02;;;;;;;8.50;5.47;;;;;;;12.83;100.00;95311.16;4964432;28;24440;-76
2022/09/30 09:41:38;;;;;;;8.52;6.15;;;;;;;13.12;100.00;95308.81;4973817;28;24453;-76
2022/09/30 09:44:11;;;;;;;7.53;5.30;;;;;;;12.85;100.00;95314.44;4978149;28;24566;-76
2022/09/30 09:46:44;;;;;;;9.73;5.55;;;;;;;12.63;100.00;95315.28;4977993;28;24815;-76
2022/09/30 09:49:29;;;;;;;7.30;5.60;;;;;;;12.75;100.00;95313.50;4980870;28;24511;-76
2022/09/30 09:52:13;;;;;;;7.60;4.78;;;;;;;13.07;100.00;95321.34;4975202;28;24441;-76
2022/09/30 09:54:42;;;;;;;8.63;4.63;;;;;;;13.73;100.00;95321.25;4968317;28;24430;-76
2022/09/30 09:57:09;;;;;;;6.65;4.68;;;;;;;14.29;100.00;95320.88;4969802;28;24800;-76
2022/09/30 09:59:36;;;;;;;6.57;4.90;;;;;;;14.13;94.37;95326.56;4972109;28;24492;-76
2022/09/30 10:02:22;;;;;;;7.18;4.50;;;;;;;14.27;98.33;95323.59;4974962;28;25009;-76
2022/09/30 10:04:58;;;;;;;6.43;4.40;;;;;;;14.26;96.57;95328.97;4969449;28;24537;-76
2022/09/30 10:07:25;;;;;;;7.72;4.65;;;;;;;14.55;93.42;95329.13;4978067;28;24433;-76
2022/09/30 10:10:07;;;;;;;6.95;4.90;;;;;;;14.71;91.81;95321.63;4973624;28;24471;-76
2022/09/30 10:12:34;;;;;;;5.82;4.28;;;;;;;14.84;92.60;95328.41;4981188;28;24456;-76
2022/09/30 10:15:04;;;;;;;6.60;4.35;;;;;;;14.87;94.67;95328.13;4969024;28;24803;-75
2022/09/30 10:17:34;;;;;;;6.78;3.60;;;;;;;14.97;88.20;95323.75;4981557;28;24787;-75
2022/09/30 10:20:06;;;;;;;6.43;3.30;;;;;;;14.85;88.75;95327.44;4978213;28;24429;-75
2022/09/30 10:22:35;;;;;;;4.97;2.90;;;;;;;15.08;92.07;95322.81;4979729;28;24452;-77
2022/09/30 10:25:21;;;;;;;5.10;3.03;;;;;;;15.25;84.25;95328.22;4977694;28;24448;-77
2022/09/30 10:27:55;;;;;;;5.72;3.22;;;;;;;15.63;84.92;95329.19;4966902;28;24437;-77
2022/09/30 10:30:41;;;;;;;9.17;3.37;;;;;;;15.45;87.36;95328.22;4966236;28;24528;-77
2022/09/30 10:33:18;;;;;;;5.55;3.08;;;;;;;15.11;84.59;95330.38;4972687;28;24991;-78
2022/09/30 10:36:08;;;;;;;6.68;2.92;;;;;;;14.82;80.35;95327.69;4967802;28;24444;-77
2022/09/30 10:38:36;;;;;;;7.97;2.93;;;;;;;14.19;82.21;95328.63;4953277;28;25005;-78
2022/09/30 10:41:05;;;;;;;4.90;2.77;;;;;;;14.53;82.56;95338.84;4977952;28;24441;-77
2022/09/30 10:43:37;;;;;;;7.78;2.20;;;;;;;14.40;79.44;95338.22;4972080;28;24437;-77
2022/09/30 10:46:05;;;;;;;5.97;2.63;;;;;;;13.93;80.35;95341.22;4973527;28;24441;-78
2022/09/30 10:48:37;;;;;;;4.93;2.57;;;;;;;13.44;80.50;95344.44;4967198;28;24541;-77
2022/09/30 10:51:18;;;;;;;5.53;2.20;;;;;;;13.51;84.05;95345.59;4973588;28;24989;-77
2022/09/30 10:53:44;;;;;;;4.38;2.50;;;;;;;13.60;83.33;95344.84;4970704;28;24442;-78
2022/09/30 10:56:11;;;;;;;3.70;2.55;;;;;;;14.15;88.58;95329.84;4980958;28;24708;-77
2022/09/30 10:58:46;;;;;;;5.43;2.85;;;;;;;14.64;85.29;95324.91;4967937;28;24430;-78
2022/09/30 11:01:21;;;;;;;4.10;2.20;;;;;;;14.34;78.85;95334.34;4979980;28;26163;-78
2022/09/30 11:03:57;;;;;;;5.00;2.53;;;;;;;14.01;79.04;95336.22;4971902;28;24449;-77
2022/09/30 11:06:24;;;;;;;3.42;2.38;;;;;;;13.90;80.88;95340.66;4978497;28;24504;-76
2022/09/30 11:08:56;;;;;;;2.60;2.08;;;;;;;13.62;80.25;95340.34;4970950;28;24536;-76
2022/09/30 11:11:28;;;;;;;3.65;2.25;;;;;;;13.51;84.75;95337.78;4981403;28;24443;-75
2022/09/30 11:13:57;;;;;;;3.85;2.70;;;;;;;13.36;84.07;95339.03;4975747;28;24448;-76
2022/09/30 11:16:31;;;;;;;5.80;2.33;;;;;;;13.81;84.09;95339.66;4981429;28;24511;-76
2022/09/30 11:19:05;;;;;;;6.20;2.40;;;;;;;13.66;84.96;95340.91;4975627;28;24428;-75
2022/09/30 11:21:39;;;;;;;3.75;2.30;;;;;;;13.66;84.64;95339.13;4986397;28;24433;-75
2022/09/30 11:24:16;;;;;;;3.33;2.00;;;;;;;13.74;87.12;95341.94;4967958;28;25049;-77
2022/09/30 11:26:52;;;;;;;4.45;2.22;;;;;;;13.83;82.08;95344.72;4978869;28;24448;-77
2022/09/30 11:29:42;;;;;;;4.93;2.00;;;;;;;13.68;83.92;95346.81;4965828;28;24454;-77
2022/09/30 11:32:19;;;;;;;4.65;2.15;;;;;;;13.48;84.75;95340.63;4964554;28;24441;-75
2022/09/30 11:34:59;;;;;;;5.95;2.17;;;;;;;13.24;84.21;95346.06;4973356;28;24441;-76
2022/09/30 11:37:40;;;;;;;4.35;2.30;;;;;;;12.94;83.65;95341.47;4967632;28;24441;-74
2022/09/30 11:40:30;;;;;;;4.25;3.30;;;;;;;12.85;84.21;95337.81;4972218;28;24440;-75
2022/09/30 11:43:04;;;;;;;7.55;4.05;;;;;;;13.07;87.61;95342.16;4963237;28;24449;-73
2022/09/30 11:45:45;;;;;;;3.47;2.22;;;;;;;13.24;86.51;95339.06;4972757;28;24443;-74
2022/09/30 11:48:29;;;;;;;3.92;2.10;;;;;;;13.41;88.44;95345.50;4970386;28;24437;-75
2022/09/30 11:51:11;;;;;;;5.63;1.83;;;;;;;13.47;87.47;95352.81;4966270;28;24508;-75